Saint Peter Port, United Kingdom
Current Conditions -  °F | °C
As of 8:50 PM on Thursday 23 Oct 2014 (Local Time) from EGJB Reporting Station
Drizzle Drizzle  
Wind Chill: 15°   Ceiling: 1200
Heat Index: 15°   Visibility: 6mi
Dew Point: 15°   Wind: 13mph
Humidity: 100%   Direction: 210°SSW
Pressure: 30.12"   Gusts: NA
Location:  49.46°N, 2.54°W
Report Text: EGJB 231950Z 21011KT 9999 -DZ FEW008 BKN012 15/15 Q1020
Loading
Personal Weather Stations






























Interactive Weather Map
Tropical Storm Tracking
New forecast layout! Learn more

10-Day Weather Forecast

Advertisements
Track Severe Weather on mobile